ADDS METAR Data INFO
IDs: Format: Raw Decoded Include TAF

Data at: 1144 UTC 23 Jun 2018

PASM 231102Z AUTO 17005KT 10SM OVC050 08/04 A3011 RMK AO2 SLP214 T00780044
PASM 231002Z AUTO 16004KT 10SM OVC048 08/04 A3010 RMK AO2 SLP211 T00780044
PASM 230902Z AUTO 17005KT 10SM BKN041 OVC048 08/04 A3009 RMK AO2 SLP207 60000 T00830044 52012
PASM 230802Z AUTO 16003KT 10SM BKN050 09/04 A3007 RMK AO2 SLP202 T00890044 400890089
PASM 230702Z AUTO 19009KT 10SM SCT042 BKN050 10/04 A3006 RMK AO2 SLP198 T01000044
PASM 230602Z AUTO 20010KT 10SM FEW030 BKN045 OVC055 11/04 A3005 RMK AO2 SLP195 60000 T01060044 10122 20100 51006
PASM 230533Z AUTO 20010KT 10SM SCT028 BKN037 OVC060 10/05 A3005 RMK AO2
PASM 230515Z AUTO 21014KT 10SM BKN028 OVC037 11/05 A3004 RMK AO2
PASM 230502Z AUTO 21009KT 10SM SCT030 BKN037 11/05 A3004 RMK AO2 RAB0409E0421 SLP190 P0000 T01110050
PASM 230402Z AUTO 15008KT 10SM BKN030 OVC040 10/06 A3003 RMK AO2 RAB0335E00 SLP188 P0000 T01000061
PASM 230302Z AUTO 20015KT 10SM FEW036 OVC050 12/04 A3002 RMK AO2 SLP185 60000 T01220044 51008
PASM 230202Z AUTO 19014KT 10SM SCT032 OVC049 12/04 A3002 RMK AO2 SLP184 T01170044
PASM 230102Z AUTO 19015G19KT 10SM OVC047 12/05 A3002 RMK AO2 SLP183 T01170050
PASM 230002Z AUTO 19016G20KT 10SM OVC045 11/05 A3001 RMK AO2 SLP180 60003 T01110050 10122 20083 51017
PASM 222302Z AUTO 18018G22KT 10SM BKN030 BKN041 OVC050 12/06 A2999 RMK AO2 SLP175 T01220056
PASM 222254Z AUTO 20017G22KT 10SM BKN030 BKN041 OVC050 12/05 A2999 RMK AO2
PASM 222246Z AUTO 18014G23KT 10SM BKN028 OVC041 12/06 A2999 RMK AO2
PASM 222202Z AUTO 18015G20KT 10SM FEW026 BKN040 OVC050 11/06 A2998 RMK AO2 RAB2140E2151 SLP169 P0000 T01060056
PASM 222120Z AUTO 19011G16KT 10SM FEW022 SCT028 OVC048 10/06 A2997 RMK AO2
PASM 222112Z AUTO 17011KT 10SM FEW022 BKN029 OVC048 10/06 A2997 RMK AO2
PASM 222102Z AUTO 18012KT 10SM FEW022 SCT029 OVC043 09/05 A2997 RMK AO2 SLP166 60003 T00940050 53006
PASM 222002Z AUTO 17010G15KT 10SM FEW019 SCT036 BKN048 10/07 A2994 RMK AO2 RAE1946 SLP158 P0001 T01000067
PASM 221932Z AUTO 17010G15KT 10SM -RA FEW026 BKN034 OVC045 08/07 A2994 RMK AO2 P0001
PASM 221902Z AUTO 18010G17KT 7SM RA SCT016 BKN022 BKN030 09/06 A2994 RMK AO2 RAB1858 SLP156 P0002 T00890056
PASM 221852Z AUTO 15008G15KT 10SM SCT016 BKN022 BKN036 11/07 A2993 RMK AO2 RAB27E39 SLP153 P0000 60000 T01060067 10106 20072 53011
PASM 221841Z AUTO 16009G18KT 10SM SCT016 BKN021 OVC048 09/06 A2993 RMK AO2 RAB27E39 P0000
PASM 221823Z AUTO 15013G17KT 10SM SCT016 BKN039 OVC048 09/06 A2992 RMK AO2
PASM 221802Z AUTO 16010KT 10SM BKN016 BKN021 OVC046 09/06 A2992 RMK AO2
PASM 221702Z AUTO 16010G18KT 10SM BKN012 08/06 A2991 RMK AO2 SLP145 T00830061
PASM 221653Z AUTO 15012G19KT 10SM BKN012 08/06 A2990 RMK AO2
PASM 221630Z AUTO 15011G16KT 10SM SCT012 08/06 A2990 RMK AO2
PASM 221602Z AUTO 14011G16KT 10SM BKN012 08/06 A2989 RMK AO2 SLP140 T00780056
PASM 221555Z AUTO 15009G17KT 10SM BKN012 08/06 A2989 RMK AO2
PASM 221502Z AUTO 15007KT 10SM CLR 07/06 A2988 RMK AO2 SLP136 60000 T00720056 51014
PASM 221402Z AUTO 14006KT 10SM CLR 07/06 A2987 RMK AO2 SLP134 T00670056
PASM 221302Z AUTO 14007KT 10SM FEW075 07/06 A2986 RMK AO2 SLP131 T00720056
PASM 221202Z AUTO 17007G15KT 10SM SCT010 BKN060 OVC080 08/07 A2984 RMK AO2 RAB1114E1127 SLP124 P0000 60000 70029 T00830067 10117 20083 51023
PASM 221152Z AUTO 17008KT 10SM SCT010 BKN060 OVC080 08/07 A2984 RMK AO2 RAB14E27 P0000
PASM 221139Z AUTO 16008KT 10SM SCT010 BKN015 OVC060 08/07 A2984 RMK AO2 RAB14E27 P0000
PASM 221102Z AUTO 17008KT 10SM OVC010 09/08 A2983 RMK AO2 CIG 008V014 SLP119 T00890078
PASM 221046Z AUTO 18010KT 10SM BKN010 OVC037 09/08 A2983 RMK AO2
PASM 221002Z AUTO 18010KT 10SM FEW011 OVC037 09/07 A2981 RMK AO2 SLP113 T00890072
PASM 220950Z AUTO 18010KT 10SM SCT011 OVC037 09/08 A2981 RMK AO2
PASM 220940Z AUTO 18009KT 10SM BKN011 OVC034 09/08 A2980 RMK AO2
PASM 220902Z AUTO 18010KT 10SM OVC025 09/08 A2979 RMK AO2 SLP105 60003 T00940078 51025
PASM 220841Z AUTO 19012KT 10SM BKN023 BKN048 OVC060 10/08 A2978 RMK AO2
PASM 220810Z AUTO 18012G16KT 10SM FEW010 BKN048 OVC060 10/08 A2976 RMK AO2
PASM 220802Z AUTO 18012G17KT 10SM FEW010 BKN022 OVC060 10/08 A2976 RMK AO2 RAE0707 SLP095 P0000 T01000078 401000100
PASM 220755Z AUTO 18010KT 10SM SCT010 BKN020 OVC036 11/09 A2976 RMK AO2 RAE07 P0000
PASM 220738Z AUTO 18010G18KT 10SM BKN010 BKN026 OVC060 11/09 A2975 RMK AO2 RAE07 CIG 007V012 P0000
PASM 220731Z AUTO 19013G18KT 10SM BKN008 OVC060 11/09 A2975 RMK AO2 RAE07 CIG 007V015 P0000
PASM 220723Z AUTO 18011KT 10SM SCT008 BKN012 OVC060 11/10 A2975 RMK AO2 RAE07 P0000
PASM 220702Z AUTO 18008KT 10SM -RA BKN060 11/10 A2974 RMK AO2 SLP086 P0000 T01110100
PASM 220602Z AUTO 18010KT 10SM -RA BKN042 11/09 A2971 RMK AO2 RAB0557 SLP079 P0001 60016 T01110094 10128 20111 51012
PASM 220524Z AUTO 18009KT 10SM FEW016 BKN047 BKN055 12/10 A2970 RMK AO2
PASM 220502Z AUTO 18009KT 10SM SCT016 BKN021 BKN030 12/11 A2969 RMK AO2 RAB04030423E04030443B0432E0445 SLP070 P0001 T01220106
PASM 220444Z AUTO 16007KT 10SM -RA SCT016 BKN023 OVC043 13/11 A2968 RMK AO2 RAB0323E0343B32 P0001
PASM 220402Z AUTO 17007KT 10SM FEW024 SCT040 SCT050 12/11 A2967 RMK AO2 RAB0323E0343 P0001
PASM 220350Z AUTO 15008KT 10SM FEW010 BKN026 OVC039 12/10 A2967 RMK AO2 RAB23E43 P0001
PASM 220302Z AUTO 15010KT 10SM SCT019 SCT046 BKN060 13/10 A2965 RMK AO2 RAE02010209B02010235E0244 SLP058 P0001 60014 T01280100 53001
PASM 220236Z AUTO 16009KT 10SM -RA FEW011 BKN038 OVC047 12/11 A2964 RMK AO2 RAE0109B0135 P0001
PASM 220229Z AUTO 16011KT 10SM FEW007 BKN013 OVC047 13/11 A2964 RMK AO2 RAE0109B0135E25 P0001
PASM 220210Z AUTO 16010G16KT 5SM -RA BR BKN007 BKN012 OVC021 12/11 A2964 RMK AO2 RAE0109B0135 CIG 004V010 P0001
PASM 220202Z AUTO 16009G18KT 2 1/2SM -RA BR BKN007 OVC014 12/11 A2964 RMK AO2 RAE0109B0135 CIG 004V010 P0001
PASM 220154Z AUTO 17013G18KT 5SM BR BKN007 OVC016 12/11 A2964 RMK AO2 RAE09B35E54 CIG 005V011 P0001
PASM 220147Z AUTO 18012KT 6SM -RA BR SCT007 BKN010 BKN016 12/11 A2963 RMK AO2 RAE09B35 CIG 009V013 P0001
PASM 220140Z AUTO 20012G18KT 4SM -RA BR SCT011 BKN018 BKN048 12/11 A2963 RMK AO2 RAE09B35 CIG 015V027 P0001
PASM 220120Z AUTO 15009KT 10SM FEW009 SCT023 BKN055 13/11 A2961 RMK AO2 RAE09 P0000
PASM 220111Z AUTO 13008KT 10SM FEW009 SCT023 BKN029 13/11 A2961 RMK AO2 RAE09 P0000
PASM 220102Z AUTO 12009KT 10SM -RA FEW011 BKN029 OVC060 12/11 A2961 RMK AO2 SLP045 P0002 T01220111
PASM 220049Z AUTO 13012KT 9SM -RA SCT011 BKN027 OVC049 12/11 A2961 RMK AO2 P0001
PASM 220039Z AUTO 13010KT 10SM -RA SCT011 BKN034 OVC049 13/11 A2961 RMK AO2 P0001
PASM 220035Z AUTO 13010KT 10SM -RA BKN011 BKN022 BKN070 12/11 A2961 RMK AO2 CIG 007V015 P0001
PASM 220027Z AUTO 12006KT 9SM -RA SCT009 BKN017 OVC065 13/11 A2961 RMK AO2 CIG 012V022 P0000
PASM 220020Z AUTO 15007KT 10SM -RA SCT011 SCT020 BKN031 13/11 A2961 RMK AO2 RAB2311 SLP044 P0011 60011 T01280111 10139 20111 58007
PASM 220002Z AUTO 12012G17KT 8SM -RA FEW011 SCT022 BKN031 12/11 A2960 RMK AO2 RAB2311 P0010
PASM 212352Z AUTO 12011G17KT 5SM RA BR FEW008 SCT017 BKN029 12/11 A2961 RMK AO2 RAB11 P0008